Pagrindinis puslapis
METAR-TAF:

METAR-TAF

Oro uostai :

Kingstonas, Jamaika

platuma: 17-56N, ilguma: 076-47W, Aukštis: 3 m

Dabartinis oras

Ataskaita buvo paskelbta 1 valandą ir 6 minutes, ne 23:00 UTC
Vėjas 13 kt iš Pietryčių
Temperatūra 29°C
Drėgmė 79%
Slėgis 1012 hPa
Matomumas 10 km arba daugiau
Su prošvaistėmis ne aukštis 2000 ft
Mažai debesys ne aukštis 2200 ft, Liūtiniai kamuoliniai debesys.

METAR: MKJP 022300Z 13013KT 9999 BKN020 FEW022CB 29/25 Q1012

Laikas: 19:06 (00:06 UTC)

Prognozė

Ataskaita buvo paskelbta 6 valandos ir 51 minutes, ne 17:15 UTC
Prognozė galioja nuo 02 metu 18 UTC su 03 metu 18 UTC
Vėjas 19 kt iš Pietryčių
Matomumas 10 km arba daugiau
Mažai debesys ne aukštis 2200 ft
Tapsmas
nuo 03 metu 00 UTC su 03 metu 02 UTC
Vėjas 5 kt iš Šiaurės
Tapsmas
nuo 03 metu 14 UTC su 03 metu 16 UTC
Vėjas 22 kt iš Pietryčių

TAF: MKJP 021715Z 0218/0318 14019KT 9999 FEW022 BECMG 0300/0302 36005KT BECMG 0314/0316 14022KT

Orai ataskaitas ir orų prognozės (METAR, TAF).

turimą stotys yra geltonos ir raudonos taškus žemėlapyje.

Perkelti pele per norėdami pamatyti stoties vardą.

Tada spustelėkite, norėdami matyti oro stebėjimo ir prognozės.

Norėdami pakeisti žemėlapį: spustelėkite ant žalios mygtukų su juodo kryžiaus žemyn,; žalią mygtuką su brūkšneliu, jei norite nutolinti; arba žalių rodyklių gretimoms žemėlapius.


METAR-TAF: